createdAt,value
2018-09-02T00:00:57.841Z,13.87
2018-09-02T00:03:26.259Z,11.93
2018-09-02T00:05:54.636Z,13.83
2018-09-02T00:08:22.929Z,13.17
2018-09-02T00:10:51.244Z,11.73
2018-09-02T00:13:19.624Z,12.47
2018-09-02T00:15:47.956Z,11.30
2018-09-02T00:18:16.257Z,11.90
2018-09-02T00:20:44.589Z,10.60
2018-09-02T00:23:13.110Z,11.37
2018-09-02T00:25:41.524Z,13.70
2018-09-02T00:28:10.311Z,13.63
2018-09-02T00:30:38.686Z,12.10
2018-09-02T00:33:07.218Z,14.90
2018-09-02T00:35:35.536Z,13.07
2018-09-02T00:38:04.278Z,13.10
2018-09-02T00:40:32.644Z,12.50
2018-09-02T00:43:01.023Z,13.27
2018-09-02T00:45:29.331Z,11.80
2018-09-02T00:47:57.624Z,12.33
2018-09-02T00:50:25.986Z,11.47
2018-09-02T00:52:54.280Z,12.67
2018-09-02T00:55:22.828Z,11.97
2018-09-02T00:57:51.157Z,13.63
2018-09-02T01:00:19.448Z,12.67
2018-09-02T01:02:47.744Z,12.17
2018-09-02T01:05:16.061Z,13.30
2018-09-02T01:07:44.436Z,13.03
2018-09-02T01:10:12.737Z,12.10
2018-09-02T01:12:41.112Z,12.50
2018-09-02T01:15:09.548Z,12.40
2018-09-02T01:17:37.929Z,14.37
2018-09-02T01:20:06.427Z,14.83
2018-09-02T01:22:34.788Z,14.53
2018-09-02T01:25:03.201Z,16.80
2018-09-02T01:27:31.525Z,16.00
2018-09-02T01:29:59.834Z,15.87
2018-09-02T01:32:28.160Z,17.57
2018-09-02T01:34:56.845Z,15.10
2018-09-02T01:37:25.144Z,14.63
2018-09-02T01:39:53.461Z,14.70
2018-09-02T01:42:21.928Z,15.73
2018-09-02T01:44:50.274Z,14.27
2018-09-02T01:47:18.556Z,14.63
2018-09-02T01:49:46.897Z,13.80
2018-09-02T01:52:15.310Z,14.37
2018-09-02T01:54:43.605Z,12.60
2018-09-02T01:57:12.238Z,12.47
2018-09-02T01:59:40.540Z,14.13
2018-09-02T02:02:09.076Z,11.20
2018-09-02T02:04:42.290Z,12.53
2018-09-02T02:07:13.174Z,10.93
2018-09-02T02:09:41.838Z,11.57
2018-09-02T02:12:10.754Z,10.93
2018-09-02T02:14:39.082Z,10.80
2018-09-02T02:17:07.455Z,10.80
2018-09-02T02:19:35.780Z,12.87
2018-09-02T02:22:04.091Z,10.80
2018-09-02T02:24:32.760Z,11.40
2018-09-02T02:27:01.056Z,10.30
2018-09-02T02:29:29.593Z,10.67
2018-09-02T02:31:57.973Z,11.43
2018-09-02T02:34:26.288Z,11.20
2018-09-02T02:36:54.596Z,11.27
2018-09-02T02:39:23.239Z,11.67
2018-09-02T02:41:51.548Z,10.60
2018-09-02T02:44:19.888Z,10.90
2018-09-02T02:46:48.203Z,10.50
2018-09-02T02:49:16.689Z,9.53
2018-09-02T02:51:44.993Z,9.37
2018-09-02T02:54:13.492Z,8.67
2018-09-02T02:56:41.846Z,9.27
2018-09-02T02:59:10.250Z,10.00
2018-09-02T03:01:38.881Z,9.37
2018-09-02T03:04:07.366Z,10.20
2018-09-02T03:06:35.660Z,10.37
2018-09-02T03:09:04.869Z,9.80
2018-09-02T03:11:33.205Z,9.83
2018-09-02T03:14:01.524Z,9.10
2018-09-02T03:16:29.872Z,9.10
2018-09-02T03:18:58.241Z,8.23
2018-09-02T03:21:26.524Z,8.00
2018-09-02T03:23:55.165Z,6.97
2018-09-02T03:26:23.458Z,6.70
2018-09-02T03:28:51.777Z,6.27
2018-09-02T03:31:20.697Z,5.13
2018-09-02T03:33:49.040Z,5.00
2018-09-02T03:36:17.504Z,5.33
2018-09-02T03:38:45.829Z,5.63
2018-09-02T03:41:14.253Z,5.20
2018-09-02T03:43:42.565Z,5.23
2018-09-02T03:46:10.994Z,5.97
2018-09-02T03:48:39.292Z,6.23
2018-09-02T03:51:07.649Z,7.40
2018-09-02T03:53:36.001Z,6.27
2018-09-02T03:56:04.304Z,6.93
2018-09-02T03:58:32.592Z,6.93
2018-09-02T04:01:00.905Z,7.03
2018-09-02T04:03:29.180Z,7.30
2018-09-02T04:05:57.572Z,7.50
2018-09-02T04:08:25.896Z,7.20
2018-09-02T04:10:54.217Z,7.77
2018-09-02T04:13:22.497Z,8.40
2018-09-02T04:15:50.808Z,8.93
2018-09-02T04:18:19.269Z,9.80
2018-09-02T04:20:47.548Z,9.30
2018-09-02T04:23:16.061Z,9.53
2018-09-02T04:25:44.380Z,9.23
2018-09-02T04:28:12.761Z,9.73
2018-09-02T04:30:41.100Z,10.00
2018-09-02T04:33:09.579Z,9.80
2018-09-02T04:35:37.890Z,9.77
2018-09-02T04:38:06.417Z,10.60
2018-09-02T04:40:34.711Z,11.27
2018-09-02T04:43:03.010Z,10.93
2018-09-02T04:45:31.335Z,11.10
2018-09-02T04:47:59.617Z,12.13
2018-09-02T04:50:27.972Z,11.67
2018-09-02T04:52:56.335Z,12.43
2018-09-02T04:55:24.668Z,12.13
2018-09-02T04:57:52.948Z,11.13
2018-09-02T05:00:21.759Z,12.17
2018-09-02T05:02:50.041Z,12.33
2018-09-02T05:05:18.418Z,12.47
2018-09-02T05:07:46.768Z,14.10
2018-09-02T05:10:15.328Z,12.70
2018-09-02T05:12:43.684Z,12.97
2018-09-02T05:15:12.274Z,13.97
2018-09-02T05:17:40.636Z,12.93
2018-09-02T05:20:09.814Z,13.33
2018-09-02T05:22:38.176Z,14.60
2018-09-02T05:25:06.528Z,14.73
2018-09-02T05:27:34.860Z,15.67
2018-09-02T05:30:03.229Z,16.70
2018-09-02T05:32:32.344Z,17.23
2018-09-02T05:35:00.686Z,18.60
2018-09-02T05:37:29.033Z,19.90
2018-09-02T05:39:57.371Z,18.30
2018-09-02T05:42:25.672Z,18.33
2018-09-02T05:44:54.073Z,17.67
2018-09-02T05:47:23.111Z,19.10
2018-09-02T05:49:51.411Z,19.73
2018-09-02T05:52:19.730Z,18.90
2018-09-02T05:54:48.024Z,19.10
2018-09-02T05:57:16.567Z,20.63
2018-09-02T05:59:45.248Z,18.93
2018-09-02T06:02:13.813Z,18.43
2018-09-02T06:04:42.108Z,21.17
2018-09-02T06:07:10.495Z,19.00
2018-09-02T06:09:38.916Z,19.87
2018-09-02T06:12:07.252Z,19.10
2018-09-02T06:14:35.634Z,18.87
2018-09-02T06:17:03.949Z,16.03
2018-09-02T06:19:32.260Z,15.87
2018-09-02T06:22:00.624Z,15.87
2018-09-02T06:24:28.940Z,16.83
2018-09-02T06:26:57.263Z,16.23
2018-09-02T06:29:25.700Z,15.20
2018-09-02T06:31:53.996Z,15.03
2018-09-02T06:34:22.596Z,14.07
2018-09-02T06:36:50.926Z,12.20
2018-09-02T06:39:19.460Z,10.30
2018-09-02T06:41:47.850Z,11.07
2018-09-02T06:44:16.540Z,14.47
2018-09-02T06:46:44.824Z,11.87
2018-09-02T06:49:13.386Z,11.67
2018-09-02T06:51:41.731Z,10.57
2018-09-02T06:54:10.064Z,12.23
2018-09-02T06:56:38.340Z,11.53
2018-09-02T06:59:06.652Z,12.07
2018-09-02T07:01:35.872Z,11.20
2018-09-02T07:04:04.160Z,12.40
2018-09-02T07:06:32.550Z,12.03
2018-09-02T07:09:00.841Z,11.73
2018-09-02T07:11:29.133Z,12.00
2018-09-02T07:13:57.525Z,9.60
2018-09-02T07:16:25.832Z,9.40
2018-09-02T07:18:54.242Z,9.33
2018-09-02T07:21:22.636Z,7.17
2018-09-02T07:23:51.220Z,9.13
2018-09-02T07:26:19.821Z,9.37
2018-09-02T07:28:48.182Z,8.20
2018-09-02T07:31:16.787Z,9.83
2018-09-02T07:33:45.216Z,217.93
2018-09-02T07:36:13.596Z,6.63
2018-09-02T07:38:41.954Z,6.57
2018-09-02T07:41:10.245Z,6.20
2018-09-02T07:43:38.592Z,5.77
2018-09-02T07:46:06.852Z,6.27
2018-09-02T07:48:35.120Z,5.70
2018-09-02T07:51:03.563Z,5.37
2018-09-02T07:53:31.931Z,5.13
2018-09-02T07:56:00.296Z,4.90
2018-09-02T07:58:28.608Z,5.33
2018-09-02T08:00:56.917Z,4.80
2018-09-02T08:03:25.335Z,5.30
2018-09-02T08:05:53.647Z,4.83
2018-09-02T08:08:22.008Z,4.40
2018-09-02T08:10:50.361Z,4.23
2018-09-02T08:13:18.932Z,4.10
2018-09-02T08:15:47.250Z,4.23
2018-09-02T08:18:15.729Z,4.03
2018-09-02T08:20:44.337Z,3.60
2018-09-02T08:23:12.696Z,2.80
2018-09-02T08:25:41.153Z,2.97
2018-09-02T08:28:09.464Z,2.70
2018-09-02T08:30:37.742Z,4.33
2018-09-02T08:33:06.224Z,2.60
2018-09-02T08:35:34.537Z,2.77
2018-09-02T08:38:02.821Z,2.37
2018-09-02T08:40:31.104Z,2.90
2018-09-02T08:42:59.445Z,2.90
2018-09-02T08:45:29.010Z,2.70
2018-09-02T08:47:59.214Z,2.57
2018-09-02T08:50:27.834Z,2.90
2018-09-02T08:52:56.145Z,3.00
2018-09-02T08:55:24.616Z,2.97
2018-09-02T08:57:52.969Z,3.43
2018-09-02T09:00:21.305Z,3.30
2018-09-02T09:02:50.652Z,3.77
2018-09-02T09:05:19.008Z,3.20
2018-09-02T09:07:47.397Z,2.90
2018-09-02T09:10:15.626Z,3.80
2018-09-02T09:12:44.035Z,5.33
2018-09-02T09:15:12.365Z,3.70
2018-09-02T09:17:40.683Z,3.20
2018-09-02T09:20:09.391Z,3.97
2018-09-02T09:22:38.462Z,4.17
2018-09-02T09:25:07.727Z,5.67
2018-09-02T09:27:36.013Z,4.37
2018-09-02T09:30:04.736Z,4.07
2018-09-02T09:32:33.125Z,4.70
2018-09-02T09:35:01.469Z,5.43
2018-09-02T09:37:29.933Z,4.83
2018-09-02T09:39:58.241Z,4.67
2018-09-02T09:42:26.589Z,4.80
2018-09-02T09:44:54.924Z,4.57
2018-09-02T09:47:23.249Z,5.17
2018-09-02T09:49:51.615Z,4.83
2018-09-02T09:52:19.965Z,21.43
2018-09-02T09:54:48.244Z,6.93
2018-09-02T09:57:16.596Z,5.93
2018-09-02T09:59:44.910Z,8.30
2018-09-02T10:02:13.200Z,5.40
2018-09-02T10:04:41.536Z,5.80
2018-09-02T10:07:09.828Z,6.20
2018-09-02T10:09:38.116Z,6.27
2018-09-02T10:12:06.448Z,7.60
2018-09-02T10:14:34.772Z,6.47
2018-09-02T10:17:03.136Z,6.93
2018-09-02T10:19:31.442Z,5.87
2018-09-02T10:21:59.848Z,5.50
2018-09-02T10:24:28.137Z,5.20
2018-09-02T10:26:56.436Z,4.87
2018-09-02T10:29:24.746Z,5.63
2018-09-02T10:31:53.035Z,5.07
2018-09-02T10:34:21.344Z,4.43
2018-09-02T10:36:49.653Z,4.93
2018-09-02T10:39:17.980Z,4.47
2018-09-02T10:41:46.367Z,4.40
2018-09-02T10:44:14.672Z,4.27
2018-09-02T10:46:43.008Z,4.93
2018-09-02T10:49:11.362Z,5.30
2018-09-02T10:51:39.715Z,4.73
2018-09-02T10:54:08.537Z,6.17
2018-09-02T10:56:36.836Z,4.83
2018-09-02T10:59:05.153Z,5.23
2018-09-02T11:01:33.423Z,6.03
2018-09-02T11:04:01.740Z,5.30
2018-09-02T11:06:30.032Z,5.23
2018-09-02T11:08:58.308Z,5.80
2018-09-02T11:11:27.053Z,5.50
2018-09-02T11:13:55.504Z,5.70
2018-09-02T11:16:23.665Z,6.30
2018-09-02T11:18:51.973Z,5.13
2018-09-02T11:21:20.286Z,5.97
2018-09-02T11:23:48.613Z,6.30
2018-09-02T11:26:16.931Z,7.57
2018-09-02T11:28:45.237Z,6.33
2018-09-02T11:31:13.525Z,7.60
2018-09-02T11:33:41.828Z,6.77
2018-09-02T11:36:10.121Z,6.70
2018-09-02T11:38:38.424Z,9.13
2018-09-02T11:41:06.734Z,6.37
2018-09-02T11:43:35.021Z,6.90
2018-09-02T11:46:03.317Z,6.97
2018-09-02T11:48:31.625Z,6.93
2018-09-02T11:50:59.934Z,7.00
2018-09-02T11:53:28.292Z,6.27
2018-09-02T11:55:56.632Z,5.77
2018-09-02T11:58:24.930Z,5.50
2018-09-02T12:00:53.252Z,5.90
2018-09-02T12:03:21.585Z,7.10
2018-09-02T12:05:49.981Z,6.03
2018-09-02T12:08:18.328Z,6.60
2018-09-02T12:10:46.642Z,5.90
2018-09-02T12:13:15.065Z,6.27
2018-09-02T12:15:43.340Z,5.07
2018-09-02T12:18:12.548Z,5.60
2018-09-02T12:20:40.861Z,18.37
2018-09-02T12:23:09.464Z,194.83
2018-09-02T12:25:37.798Z,128.07
2018-09-02T12:28:06.124Z,40.83
2018-09-02T12:30:34.414Z,9.20
2018-09-02T12:33:02.733Z,6.43
2018-09-02T12:35:31.051Z,7.17
2018-09-02T12:37:59.345Z,6.57
2018-09-02T12:40:27.671Z,8.70
2018-09-02T12:42:55.989Z,11.10
2018-09-02T12:45:24.324Z,10.53
2018-09-02T12:47:52.840Z,7.93
2018-09-02T12:50:21.008Z,8.40
2018-09-02T12:52:49.294Z,11.30
2018-09-02T12:55:17.691Z,12.13
2018-09-02T12:57:45.949Z,7.50
2018-09-02T13:00:14.332Z,7.63
2018-09-02T13:02:42.641Z,8.33
2018-09-02T13:05:10.928Z,10.63
2018-09-02T13:07:39.321Z,10.47
2018-09-02T13:10:07.693Z,8.60
2018-09-02T13:12:36.059Z,8.60
2018-09-02T13:15:04.565Z,7.57
2018-09-02T13:17:32.881Z,8.40
2018-09-02T13:20:01.174Z,8.97
2018-09-02T13:22:29.684Z,9.20
2018-09-02T13:24:58.116Z,25.90
2018-09-02T13:27:26.453Z,12.87
2018-09-02T13:29:54.760Z,11.13
2018-09-02T13:32:23.147Z,12.50
2018-09-02T13:34:51.769Z,10.70
2018-09-02T13:37:20.063Z,11.50
2018-09-02T13:39:48.404Z,10.70
2018-09-02T13:42:16.701Z,10.80
2018-09-02T13:44:45.292Z,12.07
2018-09-02T13:47:13.605Z,12.03
2018-09-02T13:49:41.889Z,12.33
2018-09-02T13:52:10.180Z,14.00
2018-09-02T13:54:38.516Z,14.83
2018-09-02T13:57:06.812Z,15.80
2018-09-02T13:59:35.223Z,37.73
2018-09-02T14:02:03.485Z,15.63
2018-09-02T14:04:31.876Z,14.67
2018-09-02T14:07:00.166Z,13.73
2018-09-02T14:09:28.556Z,13.90
2018-09-02T14:11:56.836Z,14.23
2018-09-02T14:14:25.133Z,14.20
2018-09-02T14:16:53.433Z,13.83
2018-09-02T14:19:21.705Z,15.50
2018-09-02T14:21:49.990Z,15.47
2018-09-02T14:24:18.322Z,15.00
2018-09-02T14:26:46.613Z,16.57
2018-09-02T14:29:15.062Z,15.90
2018-09-02T14:31:43.362Z,18.10
2018-09-02T14:34:11.647Z,17.93
2018-09-02T14:36:39.990Z,17.10
2018-09-02T14:39:10.596Z,15.30
2018-09-02T14:41:38.997Z,14.70
2018-09-02T14:44:07.361Z,15.30
2018-09-02T14:46:36.024Z,14.70
2018-09-02T14:49:04.392Z,16.77
2018-09-02T14:51:32.677Z,15.23
2018-09-02T14:54:01.024Z,15.60
2018-09-02T14:56:29.453Z,15.67
2018-09-02T14:58:57.700Z,14.43
2018-09-02T15:01:26.032Z,14.70
2018-09-02T15:03:54.385Z,14.30
2018-09-02T15:06:22.682Z,15.33
2018-09-02T15:08:50.972Z,16.37
2018-09-02T15:11:19.341Z,15.77
2018-09-02T15:13:47.713Z,16.47
2018-09-02T15:16:16.049Z,15.33
2018-09-02T15:18:44.364Z,17.10
2018-09-02T15:21:12.869Z,15.87
2018-09-02T15:23:41.080Z,15.27
2018-09-02T15:26:09.356Z,16.50
2018-09-02T15:28:37.647Z,15.57
2018-09-02T15:31:05.959Z,15.23
2018-09-02T15:33:34.252Z,17.60
2018-09-02T15:36:02.544Z,18.37
2018-09-02T15:38:30.923Z,18.33
2018-09-02T15:40:59.233Z,17.67
2018-09-02T15:43:27.529Z,18.10
2018-09-02T15:45:55.860Z,19.23
2018-09-02T15:48:24.145Z,19.57
2018-09-02T15:50:52.428Z,19.60
2018-09-02T15:53:20.725Z,22.80
2018-09-02T15:55:49.017Z,18.47
2018-09-02T15:58:17.292Z,18.63
2018-09-02T16:00:45.664Z,19.13
2018-09-02T16:03:13.909Z,18.67
2018-09-02T16:05:42.200Z,19.20
2018-09-02T16:08:10.517Z,17.10
2018-09-02T16:10:38.828Z,17.10
2018-09-02T16:13:07.125Z,17.70
2018-09-02T16:15:35.456Z,19.27
2018-09-02T16:18:03.760Z,20.87
2018-09-02T16:20:32.172Z,19.20
2018-09-02T16:23:00.501Z,18.37
2018-09-02T16:25:28.797Z,37.07
2018-09-02T16:27:57.084Z,19.07
2018-09-02T16:30:25.495Z,17.63
2018-09-02T16:32:53.801Z,19.50
2018-09-02T16:35:22.097Z,20.90
2018-09-02T16:37:50.449Z,21.80
2018-09-02T16:40:18.768Z,22.77
2018-09-02T16:42:47.072Z,20.07
2018-09-02T16:45:15.413Z,21.00
2018-09-02T16:47:43.753Z,21.33
2018-09-02T16:50:12.053Z,19.43
2018-09-02T16:52:40.416Z,19.57
2018-09-02T16:55:08.721Z,22.87
2018-09-02T16:57:37.092Z,22.30
2018-09-02T17:00:06.808Z,22.90
2018-09-02T17:02:35.152Z,26.77
2018-09-02T17:05:13.927Z,28.07
2018-09-02T17:07:43.244Z,26.30
2018-09-02T17:10:11.525Z,24.73
2018-09-02T17:12:39.988Z,26.47
2018-09-02T17:15:08.183Z,24.10
2018-09-02T17:17:36.512Z,28.47
2018-09-02T17:20:05.182Z,30.60
2018-09-02T17:22:33.473Z,30.47
2018-09-02T17:25:01.801Z,32.33
2018-09-02T17:27:30.128Z,35.50
2018-09-02T17:29:58.432Z,36.90
2018-09-02T17:32:27.373Z,36.80
2018-09-02T17:34:55.679Z,43.20
2018-09-02T17:37:23.969Z,41.53
2018-09-02T17:39:52.268Z,44.20
2018-09-02T17:42:20.573Z,42.30
2018-09-02T17:44:48.864Z,48.03
2018-09-02T17:47:17.144Z,51.50
2018-09-02T17:49:45.461Z,46.90
2018-09-02T17:52:14.343Z,51.60
2018-09-02T17:54:42.692Z,49.30
2018-09-02T17:57:10.988Z,64.97
2018-09-02T17:59:39.364Z,78.37
2018-09-02T18:02:07.796Z,66.27
2018-09-02T18:04:36.183Z,120.43
2018-09-02T18:07:04.485Z,91.03
2018-09-02T18:09:32.789Z,86.70
2018-09-02T18:12:01.131Z,83.70
2018-09-02T18:14:29.412Z,72.57
2018-09-02T18:16:57.696Z,75.20
2018-09-02T18:19:26.004Z,97.13
2018-09-02T18:21:54.342Z,65.67
2018-09-02T18:24:22.661Z,64.43
2018-09-02T18:26:50.961Z,89.70
2018-09-02T18:29:19.238Z,94.43
2018-09-02T18:31:47.516Z,97.27
2018-09-02T18:34:15.816Z,85.83
2018-09-02T18:36:44.137Z,68.70
2018-09-02T18:39:12.683Z,94.20
2018-09-02T18:41:41.449Z,76.40
2018-09-02T18:44:10.028Z,90.20
2018-09-02T18:46:38.354Z,85.07
2018-09-02T18:49:07.144Z,76.73
2018-09-02T18:51:35.680Z,69.67
2018-09-02T18:54:03.996Z,75.77
2018-09-02T18:56:32.305Z,74.23
2018-09-02T18:59:00.637Z,66.60
2018-09-02T19:01:28.929Z,90.57
2018-09-02T19:03:57.233Z,65.33
2018-09-02T19:06:25.524Z,65.77
2018-09-02T19:08:53.820Z,261.93
2018-09-02T19:11:22.144Z,148.40
2018-09-02T19:13:50.441Z,69.10
2018-09-02T19:16:18.958Z,68.10
2018-09-02T19:18:47.332Z,65.33
2018-09-02T19:21:15.632Z,66.73
2018-09-02T19:23:43.997Z,70.60
2018-09-02T19:26:12.265Z,67.10
2018-09-02T19:28:40.608Z,61.00
2018-09-02T19:31:08.909Z,59.23
2018-09-02T19:33:37.325Z,63.20
2018-09-02T19:36:05.677Z,63.70
2018-09-02T19:38:33.993Z,71.03
2018-09-02T19:41:02.304Z,67.97
2018-09-02T19:43:30.590Z,70.57
2018-09-02T19:45:58.915Z,71.67
2018-09-02T19:48:27.293Z,63.37
2018-09-02T19:50:55.648Z,66.37
2018-09-02T19:53:23.940Z,66.43
2018-09-02T19:55:52.237Z,92.07
2018-09-02T19:58:20.538Z,74.80
2018-09-02T20:00:48.828Z,75.27
2018-09-02T20:03:17.189Z,62.90
2018-09-02T20:05:45.468Z,69.43
2018-09-02T20:08:13.764Z,59.70
2018-09-02T20:10:42.085Z,65.20
2018-09-02T20:13:10.380Z,62.67
2018-09-02T20:15:38.738Z,64.33
2018-09-02T20:18:07.157Z,60.90
2018-09-02T20:20:35.450Z,65.90
2018-09-02T20:23:03.729Z,63.07
2018-09-02T20:25:32.033Z,72.63
2018-09-02T20:28:00.737Z,62.03
2018-09-02T20:30:29.056Z,73.90
2018-09-02T20:32:57.381Z,70.10
2018-09-02T20:35:25.765Z,69.73
2018-09-02T20:37:54.120Z,73.50
2018-09-02T20:40:22.494Z,61.00
2018-09-02T20:42:50.892Z,60.23
2018-09-02T20:45:19.467Z,65.00
2018-09-02T20:47:47.876Z,61.33
2018-09-02T20:50:16.152Z,51.43
2018-09-02T20:52:44.560Z,57.50
2018-09-02T20:55:12.868Z,53.77
2018-09-02T20:57:41.273Z,48.77
2018-09-02T21:00:09.760Z,43.33
2018-09-02T21:02:38.285Z,35.43
2018-09-02T21:05:06.609Z,32.90
2018-09-02T21:07:36.025Z,29.23
2018-09-02T21:10:04.537Z,25.87
2018-09-02T21:12:32.824Z,23.53
2018-09-02T21:15:01.141Z,25.43
2018-09-02T21:17:29.453Z,27.03
2018-09-02T21:19:57.957Z,27.60
2018-09-02T21:22:26.244Z,25.77
2018-09-02T21:24:54.676Z,26.23
2018-09-02T21:27:22.984Z,25.57
2018-09-02T21:29:51.272Z,24.30
2018-09-02T21:32:19.596Z,18.20
2018-09-02T21:34:48.081Z,20.13
2018-09-02T21:37:16.368Z,14.33
2018-09-02T21:39:44.825Z,24.50
2018-09-02T21:42:13.132Z,24.33
2018-09-02T21:44:41.680Z,21.50
2018-09-02T21:47:10.019Z,23.67
2018-09-02T21:49:38.505Z,24.93
2018-09-02T21:52:06.824Z,25.10
2018-09-02T21:54:35.224Z,23.87
2018-09-02T21:57:03.504Z,21.13
2018-09-02T21:59:31.790Z,20.30
2018-09-02T22:02:00.117Z,23.73
2018-09-02T22:04:28.405Z,20.53
2018-09-02T22:06:56.765Z,21.77
2018-09-02T22:09:25.123Z,21.33
2018-09-02T22:11:53.404Z,21.23
2018-09-02T22:14:21.796Z,24.07
2018-09-02T22:16:50.220Z,23.20
2018-09-02T22:19:18.523Z,23.70
2018-09-02T22:21:47.036Z,25.93
2018-09-02T22:24:15.359Z,36.67
2018-09-02T22:26:43.712Z,34.27
2018-09-02T22:29:12.008Z,29.43
2018-09-02T22:31:40.492Z,28.10
2018-09-02T22:34:08.840Z,32.10
2018-09-02T22:36:37.124Z,33.03
2018-09-02T22:39:07.240Z,30.87
2018-09-02T22:41:35.552Z,29.87
2018-09-02T22:44:03.864Z,29.40
2018-09-02T22:46:32.160Z,35.03
2018-09-02T22:49:00.444Z,39.13
2018-09-02T22:51:28.728Z,29.83
2018-09-02T22:53:57.061Z,30.07
2018-09-02T22:56:25.375Z,27.27
2018-09-02T22:58:53.656Z,22.90
2018-09-02T23:01:21.956Z,25.37
2018-09-02T23:03:50.457Z,21.20
2018-09-02T23:06:18.750Z,19.63
2018-09-02T23:08:47.141Z,22.23
2018-09-02T23:11:15.433Z,24.73
2018-09-02T23:13:43.844Z,22.93
2018-09-02T23:16:12.144Z,27.80
2018-09-02T23:18:40.563Z,24.93
2018-09-02T23:21:08.848Z,26.67
2018-09-02T23:23:37.570Z,25.90
2018-09-02T23:26:05.957Z,27.20
2018-09-02T23:28:34.260Z,26.93
2018-09-02T23:31:02.569Z,29.10
2018-09-02T23:33:30.857Z,25.97
2018-09-02T23:35:59.164Z,26.87
2018-09-02T23:38:27.471Z,26.30
2018-09-02T23:40:55.856Z,25.30
2018-09-02T23:43:24.140Z,23.47
2018-09-02T23:45:52.612Z,23.90
2018-09-02T23:48:20.893Z,22.50
2018-09-02T23:50:49.389Z,21.87
2018-09-02T23:53:17.728Z,22.30
2018-09-02T23:55:46.116Z,21.27
2018-09-02T23:58:14.400Z,19.23
